sensor_id;sensor_type;location;lat;lon;timestamp;temperature;humidity
42187;DHT22;27858;51.414;0.018;2024-02-21T00:02:21;10.10;99.90
42187;DHT22;27858;51.414;0.018;2024-02-21T00:04:48;10.00;99.90
42187;DHT22;27858;51.414;0.018;2024-02-21T00:07:15;10.00;99.90
42187;DHT22;27858;51.414;0.018;2024-02-21T00:09:42;10.10;99.90
42187;DHT22;27858;51.414;0.018;2024-02-21T00:12:09;10.10;99.90
42187;DHT22;27858;51.414;0.018;2024-02-21T00:14:36;10.00;99.90
42187;DHT22;27858;51.414;0.018;2024-02-21T00:17:03;10.10;99.90
42187;DHT22;27858;51.414;0.018;2024-02-21T00:19:30;10.10;99.90
42187;DHT22;27858;51.414;0.018;2024-02-21T00:21:57;10.10;99.90
42187;DHT22;27858;51.414;0.018;2024-02-21T00:24:24;10.10;99.90
42187;DHT22;27858;51.414;0.018;2024-02-21T00:26:51;10.10;99.90
42187;DHT22;27858;51.414;0.018;2024-02-21T00:29:18;10.10;99.90
42187;DHT22;27858;51.414;0.018;2024-02-21T00:31:44;10.20;99.90
42187;DHT22;27858;51.414;0.018;2024-02-21T00:34:11;10.20;99.90
42187;DHT22;27858;51.414;0.018;2024-02-21T00:36:40;10.20;99.90
42187;DHT22;27858;51.414;0.018;2024-02-21T00:39:06;10.10;99.90
42187;DHT22;27858;51.414;0.018;2024-02-21T00:41:33;10.20;99.90
42187;DHT22;27858;51.414;0.018;2024-02-21T00:44:00;10.20;99.90
42187;DHT22;27858;51.414;0.018;2024-02-21T00:46:27;10.20;99.90
42187;DHT22;27858;51.414;0.018;2024-02-21T00:48:54;10.20;99.90
42187;DHT22;27858;51.414;0.018;2024-02-21T00:51:21;10.20;99.90
42187;DHT22;27858;51.414;0.018;2024-02-21T00:53:48;10.20;99.90
42187;DHT22;27858;51.414;0.018;2024-02-21T00:56:16;10.20;99.90
42187;DHT22;27858;51.414;0.018;2024-02-21T00:58:43;10.20;99.90
42187;DHT22;27858;51.414;0.018;2024-02-21T01:01:09;10.20;99.90
42187;DHT22;27858;51.414;0.018;2024-02-21T01:03:39;10.10;99.90
42187;DHT22;27858;51.414;0.018;2024-02-21T01:06:06;10.10;99.90
42187;DHT22;27858;51.414;0.018;2024-02-21T01:08:33;10.10;99.90
42187;DHT22;27858;51.414;0.018;2024-02-21T01:11:00;10.10;99.90
42187;DHT22;27858;51.414;0.018;2024-02-21T01:13:27;10.10;99.90
42187;DHT22;27858;51.414;0.018;2024-02-21T01:15:54;10.10;99.90
42187;DHT22;27858;51.414;0.018;2024-02-21T01:18:21;10.10;99.90
42187;DHT22;27858;51.414;0.018;2024-02-21T01:20:48;10.10;99.90
42187;DHT22;27858;51.414;0.018;2024-02-21T01:23:15;10.10;99.90
42187;DHT22;27858;51.414;0.018;2024-02-21T01:25:42;10.20;99.90
42187;DHT22;27858;51.414;0.018;2024-02-21T01:28:09;10.10;99.90
42187;DHT22;27858;51.414;0.018;2024-02-21T01:30:36;10.10;99.90
42187;DHT22;27858;51.414;0.018;2024-02-21T01:33:03;10.10;99.90
42187;DHT22;27858;51.414;0.018;2024-02-21T01:35:30;10.10;99.90
42187;DHT22;27858;51.414;0.018;2024-02-21T01:37:57;10.10;99.90
42187;DHT22;27858;51.414;0.018;2024-02-21T01:40:24;10.10;99.90
42187;DHT22;27858;51.414;0.018;2024-02-21T01:42:51;10.10;99.90
42187;DHT22;27858;51.414;0.018;2024-02-21T01:45:20;10.10;99.90
42187;DHT22;27858;51.414;0.018;2024-02-21T01:47:48;10.10;99.90
42187;DHT22;27858;51.414;0.018;2024-02-21T01:50:17;10.10;99.90
42187;DHT22;27858;51.414;0.018;2024-02-21T01:52:46;10.10;99.90
42187;DHT22;27858;51.414;0.018;2024-02-21T01:55:16;10.20;99.90
42187;DHT22;27858;51.414;0.018;2024-02-21T01:57:44;10.10;99.90
42187;DHT22;27858;51.414;0.018;2024-02-21T02:00:13;10.10;99.90
42187;DHT22;27858;51.414;0.018;2024-02-21T02:02:40;10.10;99.90
42187;DHT22;27858;51.414;0.018;2024-02-21T02:05:08;10.20;99.90
42187;DHT22;27858;51.414;0.018;2024-02-21T02:07:36;10.10;99.90
42187;DHT22;27858;51.414;0.018;2024-02-21T02:10:03;10.20;99.90
42187;DHT22;27858;51.414;0.018;2024-02-21T02:12:30;10.10;99.90
42187;DHT22;27858;51.414;0.018;2024-02-21T02:15:01;10.10;99.90
42187;DHT22;27858;51.414;0.018;2024-02-21T02:17:31;10.10;99.90
42187;DHT22;27858;51.414;0.018;2024-02-21T02:19:58;10.20;99.90
42187;DHT22;27858;51.414;0.018;2024-02-21T02:22:29;10.20;99.90
42187;DHT22;27858;51.414;0.018;2024-02-21T02:24:59;10.20;99.90
42187;DHT22;27858;51.414;0.018;2024-02-21T02:27:25;10.20;99.90
42187;DHT22;27858;51.414;0.018;2024-02-21T02:29:52;10.20;99.90
42187;DHT22;27858;51.414;0.018;2024-02-21T02:32:19;10.10;99.90
42187;DHT22;27858;51.414;0.018;2024-02-21T02:34:46;10.20;99.90
42187;DHT22;27858;51.414;0.018;2024-02-21T02:37:13;10.20;99.90
42187;DHT22;27858;51.414;0.018;2024-02-21T02:39:40;10.20;99.90
42187;DHT22;27858;51.414;0.018;2024-02-21T02:42:07;10.20;99.90
42187;DHT22;27858;51.414;0.018;2024-02-21T02:44:35;10.20;99.90
42187;DHT22;27858;51.414;0.018;2024-02-21T02:47:02;10.20;99.90
42187;DHT22;27858;51.414;0.018;2024-02-21T02:49:29;10.20;99.90
42187;DHT22;27858;51.414;0.018;2024-02-21T02:51:55;10.20;99.90
42187;DHT22;27858;51.414;0.018;2024-02-21T02:54:22;10.20;99.90
42187;DHT22;27858;51.414;0.018;2024-02-21T02:56:50;10.30;99.90
42187;DHT22;27858;51.414;0.018;2024-02-21T02:59:17;10.30;99.90
42187;DHT22;27858;51.414;0.018;2024-02-21T03:01:44;10.20;99.90
42187;DHT22;27858;51.414;0.018;2024-02-21T03:04:11;10.30;99.90
42187;DHT22;27858;51.414;0.018;2024-02-21T03:06:39;10.20;99.90
42187;DHT22;27858;51.414;0.018;2024-02-21T03:09:06;10.20;99.90
42187;DHT22;27858;51.414;0.018;2024-02-21T03:11:35;10.20;99.90
42187;DHT22;27858;51.414;0.018;2024-02-21T03:14:03;10.30;99.90
42187;DHT22;27858;51.414;0.018;2024-02-21T03:16:30;10.20;99.90
42187;DHT22;27858;51.414;0.018;2024-02-21T03:18:57;10.20;99.90
42187;DHT22;27858;51.414;0.018;2024-02-21T03:21:24;10.20;99.90
42187;DHT22;27858;51.414;0.018;2024-02-21T03:23:50;10.20;99.90
42187;DHT22;27858;51.414;0.018;2024-02-21T03:26:18;10.20;99.90
42187;DHT22;27858;51.414;0.018;2024-02-21T03:28:44;10.20;99.90
42187;DHT22;27858;51.414;0.018;2024-02-21T03:31:13;10.30;99.90
42187;DHT22;27858;51.414;0.018;2024-02-21T03:33:42;10.20;99.90
42187;DHT22;27858;51.414;0.018;2024-02-21T03:36:15;10.20;99.90
42187;DHT22;27858;51.414;0.018;2024-02-21T03:38:42;10.10;99.90
42187;DHT22;27858;51.414;0.018;2024-02-21T03:41:09;10.10;99.90
42187;DHT22;27858;51.414;0.018;2024-02-21T03:43:38;10.10;99.90
42187;DHT22;27858;51.414;0.018;2024-02-21T03:46:06;10.00;99.90
42187;DHT22;27858;51.414;0.018;2024-02-21T03:48:33;10.00;99.90
42187;DHT22;27858;51.414;0.018;2024-02-21T03:51:00;10.10;99.90
42187;DHT22;27858;51.414;0.018;2024-02-21T03:53:26;10.10;99.90
42187;DHT22;27858;51.414;0.018;2024-02-21T03:55:55;10.00;99.90
42187;DHT22;27858;51.414;0.018;2024-02-21T03:58:22;10.10;99.90
42187;DHT22;27858;51.414;0.018;2024-02-21T04:00:49;10.00;99.90
42187;DHT22;27858;51.414;0.018;2024-02-21T04:03:15;10.00;99.90
42187;DHT22;27858;51.414;0.018;2024-02-21T04:05:43;10.00;99.90
42187;DHT22;27858;51.414;0.018;2024-02-21T04:08:11;10.00;99.90
42187;DHT22;27858;51.414;0.018;2024-02-21T04:10:38;10.10;99.90
42187;DHT22;27858;51.414;0.018;2024-02-21T04:13:09;10.00;99.90
42187;DHT22;27858;51.414;0.018;2024-02-21T04:15:36;10.00;99.90
42187;DHT22;27858;51.414;0.018;2024-02-21T04:18:03;10.00;99.90
42187;DHT22;27858;51.414;0.018;2024-02-21T04:20:30;10.00;99.90
42187;DHT22;27858;51.414;0.018;2024-02-21T04:22:57;10.00;99.90
42187;DHT22;27858;51.414;0.018;2024-02-21T04:25:24;10.00;99.90
42187;DHT22;27858;51.414;0.018;2024-02-21T04:27:51;9.90;99.90
42187;DHT22;27858;51.414;0.018;2024-02-21T04:30:18;10.00;99.90
42187;DHT22;27858;51.414;0.018;2024-02-21T04:32:45;9.90;99.90
42187;DHT22;27858;51.414;0.018;2024-02-21T04:35:11;9.90;99.90
42187;DHT22;27858;51.414;0.018;2024-02-21T04:37:38;10.00;99.90
42187;DHT22;27858;51.414;0.018;2024-02-21T04:40:06;9.90;99.90
42187;DHT22;27858;51.414;0.018;2024-02-21T04:42:33;9.90;99.90
42187;DHT22;27858;51.414;0.018;2024-02-21T04:44:59;9.90;99.90
42187;DHT22;27858;51.414;0.018;2024-02-21T04:47:27;9.90;99.90
42187;DHT22;27858;51.414;0.018;2024-02-21T04:49:55;9.90;99.90
42187;DHT22;27858;51.414;0.018;2024-02-21T04:52:22;9.90;99.90
42187;DHT22;27858;51.414;0.018;2024-02-21T04:54:48;9.90;99.90
42187;DHT22;27858;51.414;0.018;2024-02-21T04:57:15;9.90;99.90
42187;DHT22;27858;51.414;0.018;2024-02-21T04:59:47;9.90;99.90
42187;DHT22;27858;51.414;0.018;2024-02-21T05:02:16;9.90;99.90
42187;DHT22;27858;51.414;0.018;2024-02-21T05:04:43;9.80;99.90
42187;DHT22;27858;51.414;0.018;2024-02-21T05:07:11;9.80;99.90
42187;DHT22;27858;51.414;0.018;2024-02-21T05:09:38;9.80;99.90
42187;DHT22;27858;51.414;0.018;2024-02-21T05:12:05;9.70;99.90
42187;DHT22;27858;51.414;0.018;2024-02-21T05:14:32;9.80;99.90
42187;DHT22;27858;51.414;0.018;2024-02-21T05:16:59;9.80;99.90
42187;DHT22;27858;51.414;0.018;2024-02-21T05:19:26;9.80;99.90
42187;DHT22;27858;51.414;0.018;2024-02-21T05:21:53;9.80;99.90
42187;DHT22;27858;51.414;0.018;2024-02-21T05:24:20;9.80;99.90
42187;DHT22;27858;51.414;0.018;2024-02-21T05:26:47;9.90;99.90
42187;DHT22;27858;51.414;0.018;2024-02-21T05:29:14;9.80;99.90
42187;DHT22;27858;51.414;0.018;2024-02-21T05:34:22;9.80;99.90
42187;DHT22;27858;51.414;0.018;2024-02-21T05:36:49;9.80;99.90
42187;DHT22;27858;51.414;0.018;2024-02-21T05:39:19;9.80;99.90
42187;DHT22;27858;51.414;0.018;2024-02-21T05:41:46;9.80;99.90
42187;DHT22;27858;51.414;0.018;2024-02-21T05:44:13;9.80;99.90
42187;DHT22;27858;51.414;0.018;2024-02-21T05:46:39;9.80;99.90
42187;DHT22;27858;51.414;0.018;2024-02-21T05:49:06;9.80;99.90
42187;DHT22;27858;51.414;0.018;2024-02-21T05:51:34;9.90;99.90
42187;DHT22;27858;51.414;0.018;2024-02-21T05:54:01;9.80;99.90
42187;DHT22;27858;51.414;0.018;2024-02-21T05:56:28;9.80;99.90
42187;DHT22;27858;51.414;0.018;2024-02-21T05:58:55;9.70;99.90
42187;DHT22;27858;51.414;0.018;2024-02-21T06:01:22;9.70;99.90
42187;DHT22;27858;51.414;0.018;2024-02-21T06:03:49;9.70;99.90
42187;DHT22;27858;51.414;0.018;2024-02-21T06:06:16;9.70;99.90
42187;DHT22;27858;51.414;0.018;2024-02-21T06:08:43;9.50;99.90
42187;DHT22;27858;51.414;0.018;2024-02-21T06:11:10;9.60;99.90
42187;DHT22;27858;51.414;0.018;2024-02-21T06:13:40;9.50;99.90
42187;DHT22;27858;51.414;0.018;2024-02-21T06:16:07;9.60;99.90
42187;DHT22;27858;51.414;0.018;2024-02-21T06:18:35;9.60;99.90
42187;DHT22;27858;51.414;0.018;2024-02-21T06:21:03;9.50;99.90
42187;DHT22;27858;51.414;0.018;2024-02-21T06:23:30;9.50;99.90
42187;DHT22;27858;51.414;0.018;2024-02-21T06:25:57;9.60;99.90
42187;DHT22;27858;51.414;0.018;2024-02-21T06:28:24;9.50;99.90
42187;DHT22;27858;51.414;0.018;2024-02-21T06:30:50;9.60;99.90
42187;DHT22;27858;51.414;0.018;2024-02-21T06:33:17;9.70;99.90
42187;DHT22;27858;51.414;0.018;2024-02-21T06:35:45;9.50;99.90
42187;DHT22;27858;51.414;0.018;2024-02-21T06:38:14;9.50;99.90
42187;DHT22;27858;51.414;0.018;2024-02-21T06:40:42;9.40;99.90
42187;DHT22;27858;51.414;0.018;2024-02-21T06:43:17;9.30;99.90
42187;DHT22;27858;51.414;0.018;2024-02-21T06:45:45;9.40;99.90
42187;DHT22;27858;51.414;0.018;2024-02-21T06:48:14;9.70;99.90
42187;DHT22;27858;51.414;0.018;2024-02-21T06:50:41;9.70;99.90
42187;DHT22;27858;51.414;0.018;2024-02-21T06:53:08;9.50;99.90
42187;DHT22;27858;51.414;0.018;2024-02-21T06:55:35;9.70;99.90
42187;DHT22;27858;51.414;0.018;2024-02-21T06:58:02;9.50;99.90
42187;DHT22;27858;51.414;0.018;2024-02-21T07:00:29;9.20;99.90
42187;DHT22;27858;51.414;0.018;2024-02-21T07:02:56;9.40;99.90
42187;DHT22;27858;51.414;0.018;2024-02-21T07:05:23;9.70;99.90
42187;DHT22;27858;51.414;0.018;2024-02-21T07:07:51;9.40;99.90
42187;DHT22;27858;51.414;0.018;2024-02-21T07:10:18;9.30;99.90
42187;DHT22;27858;51.414;0.018;2024-02-21T07:12:44;9.20;99.90
42187;DHT22;27858;51.414;0.018;2024-02-21T07:15:11;9.30;99.90
42187;DHT22;27858;51.414;0.018;2024-02-21T07:17:40;9.80;99.90
42187;DHT22;27858;51.414;0.018;2024-02-21T07:20:08;9.60;99.90
42187;DHT22;27858;51.414;0.018;2024-02-21T07:22:35;9.80;99.90
42187;DHT22;27858;51.414;0.018;2024-02-21T07:25:02;9.70;99.90
42187;DHT22;27858;51.414;0.018;2024-02-21T07:27:32;9.30;99.90
42187;DHT22;27858;51.414;0.018;2024-02-21T07:30:00;9.40;99.90
42187;DHT22;27858;51.414;0.018;2024-02-21T07:32:27;9.60;99.90
42187;DHT22;27858;51.414;0.018;2024-02-21T07:34:54;9.40;99.90
42187;DHT22;27858;51.414;0.018;2024-02-21T07:37:22;9.30;99.90
42187;DHT22;27858;51.414;0.018;2024-02-21T07:39:48;9.40;99.90
42187;DHT22;27858;51.414;0.018;2024-02-21T07:42:15;9.40;99.90
42187;DHT22;27858;51.414;0.018;2024-02-21T07:44:45;9.30;99.90
42187;DHT22;27858;51.414;0.018;2024-02-21T07:47:12;9.50;99.90
42187;DHT22;27858;51.414;0.018;2024-02-21T07:49:45;9.70;99.90
42187;DHT22;27858;51.414;0.018;2024-02-21T07:52:13;9.50;99.90
42187;DHT22;27858;51.414;0.018;2024-02-21T07:54:41;9.50;99.90
42187;DHT22;27858;51.414;0.018;2024-02-21T07:57:07;9.60;99.90
42187;DHT22;27858;51.414;0.018;2024-02-21T07:59:34;9.70;99.90
42187;DHT22;27858;51.414;0.018;2024-02-21T08:02:01;9.50;99.90
42187;DHT22;27858;51.414;0.018;2024-02-21T08:04:29;9.80;99.90
42187;DHT22;27858;51.414;0.018;2024-02-21T08:06:57;9.60;99.90
42187;DHT22;27858;51.414;0.018;2024-02-21T08:09:28;9.90;99.90
42187;DHT22;27858;51.414;0.018;2024-02-21T08:11:54;9.80;99.90
42187;DHT22;27858;51.414;0.018;2024-02-21T08:14:22;9.90;99.90
42187;DHT22;27858;51.414;0.018;2024-02-21T08:16:48;9.90;99.90
42187;DHT22;27858;51.414;0.018;2024-02-21T08:19:15;9.80;99.90
42187;DHT22;27858;51.414;0.018;2024-02-21T08:21:42;9.90;99.90
42187;DHT22;27858;51.414;0.018;2024-02-21T08:24:09;9.80;99.90
42187;DHT22;27858;51.414;0.018;2024-02-21T08:26:43;10.00;99.90
42187;DHT22;27858;51.414;0.018;2024-02-21T08:29:14;9.90;99.90
42187;DHT22;27858;51.414;0.018;2024-02-21T08:31:41;9.70;99.90
42187;DHT22;27858;51.414;0.018;2024-02-21T08:34:08;10.00;99.90
42187;DHT22;27858;51.414;0.018;2024-02-21T08:36:35;10.10;99.90
42187;DHT22;27858;51.414;0.018;2024-02-21T08:39:03;9.90;99.90
42187;DHT22;27858;51.414;0.018;2024-02-21T08:41:32;10.00;99.90
42187;DHT22;27858;51.414;0.018;2024-02-21T08:44:17;9.70;99.90
42187;DHT22;27858;51.414;0.018;2024-02-21T08:46:44;9.70;99.90
42187;DHT22;27858;51.414;0.018;2024-02-21T08:49:11;9.70;99.90
42187;DHT22;27858;51.414;0.018;2024-02-21T08:51:38;9.90;99.90
42187;DHT22;27858;51.414;0.018;2024-02-21T08:54:05;10.10;99.90
42187;DHT22;27858;51.414;0.018;2024-02-21T08:56:32;9.80;99.90
42187;DHT22;27858;51.414;0.018;2024-02-21T08:58:59;10.10;99.90
42187;DHT22;27858;51.414;0.018;2024-02-21T09:01:26;9.90;99.90
42187;DHT22;27858;51.414;0.018;2024-02-21T09:03:53;9.80;99.90
42187;DHT22;27858;51.414;0.018;2024-02-21T09:06:21;9.90;99.90
42187;DHT22;27858;51.414;0.018;2024-02-21T09:08:48;10.00;99.90
42187;DHT22;27858;51.414;0.018;2024-02-21T09:11:15;9.90;99.90
42187;DHT22;27858;51.414;0.018;2024-02-21T09:13:42;10.10;99.90
42187;DHT22;27858;51.414;0.018;2024-02-21T09:16:09;10.00;99.90
42187;DHT22;27858;51.414;0.018;2024-02-21T09:18:36;10.30;99.90
42187;DHT22;27858;51.414;0.018;2024-02-21T09:21:03;10.30;99.90
42187;DHT22;27858;51.414;0.018;2024-02-21T09:23:29;10.00;99.90
42187;DHT22;27858;51.414;0.018;2024-02-21T09:25:58;10.00;99.90
42187;DHT22;27858;51.414;0.018;2024-02-21T09:28:27;10.10;99.90
42187;DHT22;27858;51.414;0.018;2024-02-21T09:30:54;10.00;99.90
42187;DHT22;27858;51.414;0.018;2024-02-21T09:33:21;10.30;99.90
42187;DHT22;27858;51.414;0.018;2024-02-21T09:35:58;10.10;99.90
42187;DHT22;27858;51.414;0.018;2024-02-21T09:38:25;10.30;99.90
42187;DHT22;27858;51.414;0.018;2024-02-21T09:41:18;10.40;99.90
42187;DHT22;27858;51.414;0.018;2024-02-21T09:43:52;10.10;99.90
42187;DHT22;27858;51.414;0.018;2024-02-21T09:46:30;10.00;99.90
42187;DHT22;27858;51.414;0.018;2024-02-21T09:49:31;10.00;99.90
42187;DHT22;27858;51.414;0.018;2024-02-21T09:52:05;10.30;99.90
42187;DHT22;27858;51.414;0.018;2024-02-21T09:54:33;10.30;99.90
42187;DHT22;27858;51.414;0.018;2024-02-21T09:57:02;10.30;99.90
42187;DHT22;27858;51.414;0.018;2024-02-21T09:59:32;10.00;99.90
42187;DHT22;27858;51.414;0.018;2024-02-21T10:02:00;10.40;99.90
42187;DHT22;27858;51.414;0.018;2024-02-21T10:04:29;10.30;99.90
42187;DHT22;27858;51.414;0.018;2024-02-21T10:06:56;10.20;99.90
42187;DHT22;27858;51.414;0.018;2024-02-21T10:09:25;10.40;99.90
42187;DHT22;27858;51.414;0.018;2024-02-21T10:12:17;10.10;99.90
42187;DHT22;27858;51.414;0.018;2024-02-21T10:14:46;10.40;99.90
42187;DHT22;27858;51.414;0.018;2024-02-21T10:17:17;10.20;99.90
42187;DHT22;27858;51.414;0.018;2024-02-21T10:19:45;10.40;99.90
42187;DHT22;27858;51.414;0.018;2024-02-21T10:22:15;10.10;99.90
42187;DHT22;27858;51.414;0.018;2024-02-21T10:24:42;10.50;99.90
42187;DHT22;27858;51.414;0.018;2024-02-21T10:27:12;10.00;99.90
42187;DHT22;27858;51.414;0.018;2024-02-21T10:29:40;10.50;99.90
42187;DHT22;27858;51.414;0.018;2024-02-21T10:32:08;10.10;99.90
42187;DHT22;27858;51.414;0.018;2024-02-21T10:34:36;10.40;99.90
42187;DHT22;27858;51.414;0.018;2024-02-21T10:37:05;10.20;99.90
42187;DHT22;27858;51.414;0.018;2024-02-21T10:39:34;10.00;99.90
42187;DHT22;27858;51.414;0.018;2024-02-21T10:42:03;10.50;99.90
42187;DHT22;27858;51.414;0.018;2024-02-21T10:44:33;10.00;99.90
42187;DHT22;27858;51.414;0.018;2024-02-21T10:47:11;10.50;99.90
42187;DHT22;27858;51.414;0.018;2024-02-21T10:49:41;10.50;99.90
42187;DHT22;27858;51.414;0.018;2024-02-21T10:54:52;10.10;99.90
42187;DHT22;27858;51.414;0.018;2024-02-21T10:57:21;10.20;99.90
42187;DHT22;27858;51.414;0.018;2024-02-21T10:59:49;10.50;99.90
42187;DHT22;27858;51.414;0.018;2024-02-21T11:02:16;10.20;99.90
42187;DHT22;27858;51.414;0.018;2024-02-21T11:04:44;10.00;99.90
42187;DHT22;27858;51.414;0.018;2024-02-21T11:07:13;10.10;99.90
42187;DHT22;27858;51.414;0.018;2024-02-21T11:09:50;10.60;99.90
42187;DHT22;27858;51.414;0.018;2024-02-21T11:12:21;10.60;99.90
42187;DHT22;27858;51.414;0.018;2024-02-21T11:14:51;10.30;99.90
42187;DHT22;27858;51.414;0.018;2024-02-21T11:17:19;10.30;99.90
42187;DHT22;27858;51.414;0.018;2024-02-21T11:19:53;10.20;99.90
42187;DHT22;27858;51.414;0.018;2024-02-21T11:22:21;10.30;99.90
42187;DHT22;27858;51.414;0.018;2024-02-21T11:24:51;10.70;99.90
42187;DHT22;27858;51.414;0.018;2024-02-21T11:27:22;10.50;99.90
42187;DHT22;27858;51.414;0.018;2024-02-21T11:29:56;10.80;99.90
42187;DHT22;27858;51.414;0.018;2024-02-21T11:32:25;10.80;99.90
42187;DHT22;27858;51.414;0.018;2024-02-21T11:35:01;10.20;99.90
42187;DHT22;27858;51.414;0.018;2024-02-21T11:37:33;10.20;99.90
42187;DHT22;27858;51.414;0.018;2024-02-21T11:40:01;10.30;99.90
42187;DHT22;27858;51.414;0.018;2024-02-21T11:42:30;10.30;99.90
42187;DHT22;27858;51.414;0.018;2024-02-21T11:44:57;10.80;99.90
42187;DHT22;27858;51.414;0.018;2024-02-21T11:47:24;10.80;99.90
42187;DHT22;27858;51.414;0.018;2024-02-21T11:49:52;10.40;99.90
42187;DHT22;27858;51.414;0.018;2024-02-21T11:52:23;10.80;99.90
42187;DHT22;27858;51.414;0.018;2024-02-21T11:54:52;10.80;99.90
42187;DHT22;27858;51.414;0.018;2024-02-21T11:57:21;10.50;99.90
42187;DHT22;27858;51.414;0.018;2024-02-21T11:59:48;10.90;99.90
42187;DHT22;27858;51.414;0.018;2024-02-21T12:02:16;10.70;99.90
42187;DHT22;27858;51.414;0.018;2024-02-21T12:04:45;10.70;99.90
42187;DHT22;27858;51.414;0.018;2024-02-21T12:07:12;10.90;99.90
42187;DHT22;27858;51.414;0.018;2024-02-21T12:09:41;10.90;99.90
42187;DHT22;27858;51.414;0.018;2024-02-21T12:12:08;10.90;99.90
42187;DHT22;27858;51.414;0.018;2024-02-21T12:14:35;10.70;99.90
42187;DHT22;27858;51.414;0.018;2024-02-21T12:17:03;10.50;99.90
42187;DHT22;27858;51.414;0.018;2024-02-21T12:19:31;10.70;99.90
42187;DHT22;27858;51.414;0.018;2024-02-21T12:22:00;10.40;99.90
42187;DHT22;27858;51.414;0.018;2024-02-21T12:24:28;10.60;99.90
42187;DHT22;27858;51.414;0.018;2024-02-21T12:26:56;10.80;99.90
42187;DHT22;27858;51.414;0.018;2024-02-21T12:29:24;10.90;99.90
42187;DHT22;27858;51.414;0.018;2024-02-21T12:31:51;10.50;99.90
42187;DHT22;27858;51.414;0.018;2024-02-21T12:34:19;10.50;99.90
42187;DHT22;27858;51.414;0.018;2024-02-21T12:37:04;11.20;99.90
42187;DHT22;27858;51.414;0.018;2024-02-21T12:39:30;10.70;99.90
42187;DHT22;27858;51.414;0.018;2024-02-21T12:41:59;10.70;99.90
42187;DHT22;27858;51.414;0.018;2024-02-21T12:44:26;10.70;99.90
42187;DHT22;27858;51.414;0.018;2024-02-21T12:46:54;11.40;99.90
42187;DHT22;27858;51.414;0.018;2024-02-21T12:49:22;11.30;99.90
42187;DHT22;27858;51.414;0.018;2024-02-21T12:51:49;10.70;99.90
42187;DHT22;27858;51.414;0.018;2024-02-21T12:54:16;11.30;99.90
42187;DHT22;27858;51.414;0.018;2024-02-21T12:56:42;11.40;99.90
42187;DHT22;27858;51.414;0.018;2024-02-21T12:59:09;11.10;99.90
42187;DHT22;27858;51.414;0.018;2024-02-21T13:01:37;10.70;99.90
42187;DHT22;27858;51.414;0.018;2024-02-21T13:04:05;10.80;99.90
42187;DHT22;27858;51.414;0.018;2024-02-21T13:06:32;11.50;99.90
42187;DHT22;27858;51.414;0.018;2024-02-21T13:08:59;10.90;99.90
42187;DHT22;27858;51.414;0.018;2024-02-21T13:11:30;10.80;99.90
42187;DHT22;27858;51.414;0.018;2024-02-21T13:13:58;10.90;99.90
42187;DHT22;27858;51.414;0.018;2024-02-21T13:16:25;10.90;99.90
42187;DHT22;27858;51.414;0.018;2024-02-21T13:18:55;10.90;99.90
42187;DHT22;27858;51.414;0.018;2024-02-21T13:21:22;11.10;99.90
42187;DHT22;27858;51.414;0.018;2024-02-21T13:23:49;11.50;99.90
42187;DHT22;27858;51.414;0.018;2024-02-21T13:26:16;11.10;99.90
42187;DHT22;27858;51.414;0.018;2024-02-21T13:28:43;11.20;99.90
42187;DHT22;27858;51.414;0.018;2024-02-21T13:31:12;11.20;99.90
42187;DHT22;27858;51.414;0.018;2024-02-21T13:33:38;11.40;99.90
42187;DHT22;27858;51.414;0.018;2024-02-21T13:36:06;11.40;99.90
42187;DHT22;27858;51.414;0.018;2024-02-21T13:38:32;11.20;99.90
42187;DHT22;27858;51.414;0.018;2024-02-21T13:40:59;11.40;99.90
42187;DHT22;27858;51.414;0.018;2024-02-21T13:43:27;11.30;99.90
42187;DHT22;27858;51.414;0.018;2024-02-21T13:45:59;11.50;99.90
42187;DHT22;27858;51.414;0.018;2024-02-21T13:48:26;11.20;99.90
42187;DHT22;27858;51.414;0.018;2024-02-21T13:50:54;11.30;99.90
42187;DHT22;27858;51.414;0.018;2024-02-21T13:53:21;11.20;99.90
42187;DHT22;27858;51.414;0.018;2024-02-21T13:55:49;11.40;99.90
42187;DHT22;27858;51.414;0.018;2024-02-21T13:58:16;11.50;99.90
42187;DHT22;27858;51.414;0.018;2024-02-21T14:00:44;11.30;99.90
42187;DHT22;27858;51.414;0.018;2024-02-21T14:03:11;11.40;99.90
42187;DHT22;27858;51.414;0.018;2024-02-21T14:05:37;11.60;99.90
42187;DHT22;27858;51.414;0.018;2024-02-21T14:08:09;11.60;99.90
42187;DHT22;27858;51.414;0.018;2024-02-21T14:10:36;11.30;99.90
42187;DHT22;27858;51.414;0.018;2024-02-21T14:13:04;11.30;99.90
42187;DHT22;27858;51.414;0.018;2024-02-21T14:15:31;11.50;99.90
42187;DHT22;27858;51.414;0.018;2024-02-21T14:17:58;11.30;99.90
42187;DHT22;27858;51.414;0.018;2024-02-21T14:20:25;11.30;99.90
42187;DHT22;27858;51.414;0.018;2024-02-21T14:22:51;11.40;99.90
42187;DHT22;27858;51.414;0.018;2024-02-21T14:25:18;11.20;99.90
42187;DHT22;27858;51.414;0.018;2024-02-21T14:27:45;11.40;99.90
42187;DHT22;27858;51.414;0.018;2024-02-21T14:30:12;11.20;99.90
42187;DHT22;27858;51.414;0.018;2024-02-21T14:32:43;11.20;99.90
42187;DHT22;27858;51.414;0.018;2024-02-21T14:35:10;11.10;99.90
42187;DHT22;27858;51.414;0.018;2024-02-21T14:37:37;11.40;99.90
42187;DHT22;27858;51.414;0.018;2024-02-21T14:40:04;11.10;99.90
42187;DHT22;27858;51.414;0.018;2024-02-21T14:42:32;11.30;99.90
42187;DHT22;27858;51.414;0.018;2024-02-21T14:45:00;11.10;99.90
42187;DHT22;27858;51.414;0.018;2024-02-21T14:47:32;11.10;99.90
42187;DHT22;27858;51.414;0.018;2024-02-21T14:50:01;11.40;99.90
42187;DHT22;27858;51.414;0.018;2024-02-21T14:52:28;11.10;99.90
42187;DHT22;27858;51.414;0.018;2024-02-21T14:54:56;11.40;99.90
42187;DHT22;27858;51.414;0.018;2024-02-21T14:57:23;11.10;99.90
42187;DHT22;27858;51.414;0.018;2024-02-21T14:59:52;11.50;99.90
42187;DHT22;27858;51.414;0.018;2024-02-21T15:02:23;11.20;99.90
42187;DHT22;27858;51.414;0.018;2024-02-21T15:04:50;11.30;99.90
42187;DHT22;27858;51.414;0.018;2024-02-21T15:07:19;11.20;99.90
42187;DHT22;27858;51.414;0.018;2024-02-21T15:09:46;11.40;99.90
42187;DHT22;27858;51.414;0.018;2024-02-21T15:12:13;11.10;99.90
42187;DHT22;27858;51.414;0.018;2024-02-21T15:14:40;11.20;99.90
42187;DHT22;27858;51.414;0.018;2024-02-21T15:17:07;11.40;99.90
42187;DHT22;27858;51.414;0.018;2024-02-21T15:19:34;11.40;99.90
42187;DHT22;27858;51.414;0.018;2024-02-21T15:22:05;11.60;99.90
42187;DHT22;27858;51.414;0.018;2024-02-21T15:24:32;11.50;99.90
42187;DHT22;27858;51.414;0.018;2024-02-21T15:26:59;11.30;99.90
42187;DHT22;27858;51.414;0.018;2024-02-21T15:29:25;11.30;99.90
42187;DHT22;27858;51.414;0.018;2024-02-21T15:31:52;11.30;99.90
42187;DHT22;27858;51.414;0.018;2024-02-21T15:34:19;11.30;99.90
42187;DHT22;27858;51.414;0.018;2024-02-21T15:36:46;11.50;99.90
42187;DHT22;27858;51.414;0.018;2024-02-21T15:39:13;11.30;99.90
42187;DHT22;27858;51.414;0.018;2024-02-21T15:41:40;11.20;99.90
42187;DHT22;27858;51.414;0.018;2024-02-21T15:44:07;11.30;99.90
42187;DHT22;27858;51.414;0.018;2024-02-21T15:46:34;11.60;99.90